sensor_id;sensor_type;location;lat;lon;timestamp;pressure;altitude;pressure_sealevel;temperature;humidity
8253;BME280;61313;48.396;10.008;2023-04-27T00:01:00;96245.19;;;10.12;48.28
8253;BME280;61313;48.396;10.008;2023-04-27T00:03:25;96236.47;;;10.11;48.48
8253;BME280;61313;48.396;10.008;2023-04-27T00:05:51;96240.78;;;10.12;48.53
8253;BME280;61313;48.396;10.008;2023-04-27T00:08:16;96237.13;;;9.96;49.08
8253;BME280;61313;48.396;10.008;2023-04-27T00:10:42;96242.72;;;9.88;48.84
8253;BME280;61313;48.396;10.008;2023-04-27T00:13:07;96236.94;;;10.01;48.48
8253;BME280;61313;48.396;10.008;2023-04-27T00:15:33;96236.63;;;9.88;49.36
8253;BME280;61313;48.396;10.008;2023-04-27T00:17:58;96232.94;;;9.92;49.32
8253;BME280;61313;48.396;10.008;2023-04-27T00:20:23;96230.41;;;9.90;49.68
8253;BME280;61313;48.396;10.008;2023-04-27T00:22:49;96243.63;;;9.87;49.29
8253;BME280;61313;48.396;10.008;2023-04-27T00:25:15;96241.44;;;9.78;50.08
8253;BME280;61313;48.396;10.008;2023-04-27T00:27:40;96234.91;;;9.87;50.10
8253;BME280;61313;48.396;10.008;2023-04-27T00:30:06;96233.94;;;9.89;49.41
8253;BME280;61313;48.396;10.008;2023-04-27T00:32:32;96237.34;;;9.91;49.91
8253;BME280;61313;48.396;10.008;2023-04-27T00:34:57;96231.41;;;9.88;49.67
8253;BME280;61313;48.396;10.008;2023-04-27T00:37:23;96231.25;;;9.91;50.01
8253;BME280;61313;48.396;10.008;2023-04-27T00:39:48;96228.56;;;9.92;50.21
8253;BME280;61313;48.396;10.008;2023-04-27T00:42:14;96228.38;;;9.77;50.39
8253;BME280;61313;48.396;10.008;2023-04-27T00:44:44;96226.22;;;9.66;50.67
8253;BME280;61313;48.396;10.008;2023-04-27T00:47:09;96235.09;;;9.21;51.90
8253;BME280;61313;48.396;10.008;2023-04-27T00:49:35;96234.69;;;9.52;51.07
8253;BME280;61313;48.396;10.008;2023-04-27T00:52:01;96229.16;;;9.58;50.57
8253;BME280;61313;48.396;10.008;2023-04-27T00:54:26;96219.28;;;9.65;51.04
8253;BME280;61313;48.396;10.008;2023-04-27T00:56:52;96218.53;;;9.61;50.66
8253;BME280;61313;48.396;10.008;2023-04-27T00:59:18;96216.00;;;9.60;51.14
8253;BME280;61313;48.396;10.008;2023-04-27T01:01:50;96221.84;;;9.46;51.35
8253;BME280;61313;48.396;10.008;2023-04-27T01:04:16;96215.81;;;9.44;51.57
8253;BME280;61313;48.396;10.008;2023-04-27T01:06:42;96224.22;;;9.52;50.98
8253;BME280;61313;48.396;10.008;2023-04-27T01:09:08;96219.81;;;9.52;50.73
8253;BME280;61313;48.396;10.008;2023-04-27T01:11:34;96215.56;;;9.50;51.20
8253;BME280;61313;48.396;10.008;2023-04-27T01:14:04;96216.84;;;9.40;52.04
8253;BME280;61313;48.396;10.008;2023-04-27T01:16:33;96225.31;;;9.46;51.75
8253;BME280;61313;48.396;10.008;2023-04-27T01:18:59;96216.00;;;9.39;50.80
8253;BME280;61313;48.396;10.008;2023-04-27T01:21:25;96223.47;;;9.48;51.15
8253;BME280;61313;48.396;10.008;2023-04-27T01:23:51;96219.66;;;9.35;51.28
8253;BME280;61313;48.396;10.008;2023-04-27T01:26:17;96210.75;;;9.39;50.88
8253;BME280;61313;48.396;10.008;2023-04-27T01:28:42;96221.78;;;9.47;51.04
8253;BME280;61313;48.396;10.008;2023-04-27T01:31:09;96216.38;;;9.30;51.47
8253;BME280;61313;48.396;10.008;2023-04-27T01:33:35;96217.97;;;9.34;51.13
8253;BME280;61313;48.396;10.008;2023-04-27T01:36:01;96214.16;;;9.21;52.27
8253;BME280;61313;48.396;10.008;2023-04-27T01:38:26;96220.31;;;9.20;52.32
8253;BME280;61313;48.396;10.008;2023-04-27T01:40:52;96224.34;;;9.06;52.54
8253;BME280;61313;48.396;10.008;2023-04-27T01:43:19;96217.81;;;9.17;52.39
8253;BME280;61313;48.396;10.008;2023-04-27T01:45:45;96229.06;;;9.19;53.08
8253;BME280;61313;48.396;10.008;2023-04-27T01:48:12;96235.59;;;9.08;53.20
8253;BME280;61313;48.396;10.008;2023-04-27T01:50:38;96227.56;;;9.13;53.24
8253;BME280;61313;48.396;10.008;2023-04-27T01:53:03;96240.03;;;9.06;53.21
8253;BME280;61313;48.396;10.008;2023-04-27T01:55:29;96234.75;;;9.08;53.84
8253;BME280;61313;48.396;10.008;2023-04-27T01:57:54;96247.09;;;9.04;54.31
8253;BME280;61313;48.396;10.008;2023-04-27T02:00:20;96239.16;;;9.07;53.74
8253;BME280;61313;48.396;10.008;2023-04-27T02:02:45;96246.06;;;9.08;53.49
8253;BME280;61313;48.396;10.008;2023-04-27T02:05:11;96250.81;;;8.99;53.70
8253;BME280;61313;48.396;10.008;2023-04-27T02:07:36;96244.63;;;9.01;54.33
8253;BME280;61313;48.396;10.008;2023-04-27T02:10:02;96252.59;;;8.98;53.57
8253;BME280;61313;48.396;10.008;2023-04-27T02:12:27;96246.13;;;9.07;53.60
8253;BME280;61313;48.396;10.008;2023-04-27T02:14:53;96242.19;;;8.97;53.81
8253;BME280;61313;48.396;10.008;2023-04-27T02:17:18;96237.97;;;8.93;53.77
8253;BME280;61313;48.396;10.008;2023-04-27T02:19:44;96247.16;;;8.81;53.77
8253;BME280;61313;48.396;10.008;2023-04-27T02:22:09;96246.75;;;8.92;52.85
8253;BME280;61313;48.396;10.008;2023-04-27T02:24:35;96242.91;;;8.78;53.25
8253;BME280;61313;48.396;10.008;2023-04-27T02:27:00;96258.38;;;8.84;53.94
8253;BME280;61313;48.396;10.008;2023-04-27T02:29:29;96255.00;;;8.81;53.43
8253;BME280;61313;48.396;10.008;2023-04-27T02:31:55;96251.50;;;8.82;53.22
8253;BME280;61313;48.396;10.008;2023-04-27T02:34:20;96257.41;;;8.65;53.20
8253;BME280;61313;48.396;10.008;2023-04-27T02:36:46;96260.00;;;8.65;53.53
8253;BME280;61313;48.396;10.008;2023-04-27T02:39:11;96261.16;;;8.80;53.05
8253;BME280;61313;48.396;10.008;2023-04-27T02:41:37;96264.00;;;8.74;54.02
8253;BME280;61313;48.396;10.008;2023-04-27T02:44:02;96258.78;;;8.74;54.81
8253;BME280;61313;48.396;10.008;2023-04-27T02:46:28;96265.97;;;8.68;55.19
8253;BME280;61313;48.396;10.008;2023-04-27T02:48:54;96265.13;;;8.68;54.90
8253;BME280;61313;48.396;10.008;2023-04-27T02:51:20;96257.41;;;8.65;55.46
8253;BME280;61313;48.396;10.008;2023-04-27T02:53:46;96261.16;;;8.80;55.53
8253;BME280;61313;48.396;10.008;2023-04-27T02:56:11;96257.44;;;8.63;54.75
8253;BME280;61313;48.396;10.008;2023-04-27T02:58:36;96257.13;;;8.71;55.38
8253;BME280;61313;48.396;10.008;2023-04-27T03:01:02;96257.97;;;8.50;55.40
8253;BME280;61313;48.396;10.008;2023-04-27T03:03:27;96258.72;;;8.53;54.42
8253;BME280;61313;48.396;10.008;2023-04-27T03:05:53;96259.59;;;8.52;54.69
8253;BME280;61313;48.396;10.008;2023-04-27T03:08:19;96258.97;;;8.45;54.56
8253;BME280;61313;48.396;10.008;2023-04-27T03:10:44;96257.25;;;8.46;54.48
8253;BME280;61313;48.396;10.008;2023-04-27T03:13:10;96258.03;;;8.48;55.03
8253;BME280;61313;48.396;10.008;2023-04-27T03:15:36;96253.69;;;8.47;54.82
8253;BME280;61313;48.396;10.008;2023-04-27T03:18:01;96262.53;;;8.44;55.12
8253;BME280;61313;48.396;10.008;2023-04-27T03:20:27;96258.22;;;8.43;54.29
8253;BME280;61313;48.396;10.008;2023-04-27T03:22:52;96261.75;;;8.41;54.56
8253;BME280;61313;48.396;10.008;2023-04-27T03:25:21;96266.81;;;8.45;54.19
8253;BME280;61313;48.396;10.008;2023-04-27T03:27:46;96268.81;;;8.39;54.11
8253;BME280;61313;48.396;10.008;2023-04-27T03:30:12;96272.41;;;8.36;54.88
8253;BME280;61313;48.396;10.008;2023-04-27T03:32:38;96275.38;;;8.25;54.59
8253;BME280;61313;48.396;10.008;2023-04-27T03:35:04;96271.63;;;8.33;54.30
8253;BME280;61313;48.396;10.008;2023-04-27T03:37:29;96276.13;;;8.29;54.23
8253;BME280;61313;48.396;10.008;2023-04-27T03:39:55;96273.34;;;8.34;54.67
8253;BME280;61313;48.396;10.008;2023-04-27T03:42:20;96273.47;;;8.31;54.10
8253;BME280;61313;48.396;10.008;2023-04-27T03:44:46;96281.53;;;8.24;54.59
8253;BME280;61313;48.396;10.008;2023-04-27T03:47:11;96279.53;;;8.31;54.97
8253;BME280;61313;48.396;10.008;2023-04-27T03:49:37;96283.34;;;8.22;54.75
8253;BME280;61313;48.396;10.008;2023-04-27T03:52:03;96285.63;;;8.32;55.07
8253;BME280;61313;48.396;10.008;2023-04-27T03:54:31;96301.31;;;8.32;54.91
8253;BME280;61313;48.396;10.008;2023-04-27T03:56:57;96291.72;;;8.32;55.62
8253;BME280;61313;48.396;10.008;2023-04-27T03:59:22;96293.47;;;8.08;55.89
8253;BME280;61313;48.396;10.008;2023-04-27T04:01:48;96286.66;;;8.27;55.80
8253;BME280;61313;48.396;10.008;2023-04-27T04:04:13;96290.56;;;8.16;55.52
8253;BME280;61313;48.396;10.008;2023-04-27T04:06:38;96294.22;;;8.10;56.12
8253;BME280;61313;48.396;10.008;2023-04-27T04:09:04;96300.41;;;8.07;56.00
8253;BME280;61313;48.396;10.008;2023-04-27T04:11:29;96291.63;;;8.10;56.27
8253;BME280;61313;48.396;10.008;2023-04-27T04:13:55;96295.16;;;8.09;55.73
8253;BME280;61313;48.396;10.008;2023-04-27T04:16:20;96289.81;;;8.12;55.33
8253;BME280;61313;48.396;10.008;2023-04-27T04:18:46;96294.34;;;8.07;55.33
8253;BME280;61313;48.396;10.008;2023-04-27T04:21:11;96298.56;;;8.11;55.96
8253;BME280;61313;48.396;10.008;2023-04-27T04:23:37;96305.31;;;8.17;56.23
8253;BME280;61313;48.396;10.008;2023-04-27T04:26:05;96306.19;;;7.92;56.88
8253;BME280;61313;48.396;10.008;2023-04-27T04:28:30;96297.56;;;8.15;55.77
8253;BME280;61313;48.396;10.008;2023-04-27T04:30:56;96297.72;;;8.11;56.18
8253;BME280;61313;48.396;10.008;2023-04-27T04:33:21;96309.06;;;8.10;56.27
8253;BME280;61313;48.396;10.008;2023-04-27T04:35:47;96306.09;;;8.20;55.16
8253;BME280;61313;48.396;10.008;2023-04-27T04:38:12;96312.63;;;8.32;54.56
8253;BME280;61313;48.396;10.008;2023-04-27T04:40:38;96305.25;;;8.20;55.25
8253;BME280;61313;48.396;10.008;2023-04-27T04:43:04;96307.69;;;8.24;55.17
8253;BME280;61313;48.396;10.008;2023-04-27T04:45:30;96304.72;;;8.34;54.60
8253;BME280;61313;48.396;10.008;2023-04-27T04:48:02;96300.41;;;8.33;54.70
8253;BME280;61313;48.396;10.008;2023-04-27T04:50:28;96308.25;;;8.33;54.76
8253;BME280;61313;48.396;10.008;2023-04-27T04:52:53;96310.00;;;9.25;68.46
8253;BME280;61313;48.396;10.008;2023-04-27T04:55:19;96302.94;;;10.31;61.60
8253;BME280;61313;48.396;10.008;2023-04-27T04:57:47;96302.41;;;10.62;54.22
8253;BME280;61313;48.396;10.008;2023-04-27T05:00:13;96305.59;;;10.69;54.09
8253;BME280;61313;48.396;10.008;2023-04-27T05:02:39;96307.25;;;9.70;50.54
8253;BME280;61313;48.396;10.008;2023-04-27T05:05:05;96311.06;;;8.97;52.19
8253;BME280;61313;48.396;10.008;2023-04-27T05:07:31;96317.47;;;8.90;52.85
8253;BME280;61313;48.396;10.008;2023-04-27T05:09:59;96321.75;;;10.41;65.58
8253;BME280;61313;48.396;10.008;2023-04-27T05:12:27;96312.06;;;9.81;51.10
8253;BME280;61313;48.396;10.008;2023-04-27T05:14:53;96316.06;;;9.25;52.17
8253;BME280;61313;48.396;10.008;2023-04-27T05:17:19;96327.75;;;8.95;52.89
8253;BME280;61313;48.396;10.008;2023-04-27T05:19:44;96329.81;;;8.86;53.05
8253;BME280;61313;48.396;10.008;2023-04-27T05:22:10;96327.69;;;8.96;52.82
8253;BME280;61313;48.396;10.008;2023-04-27T05:24:35;96333.50;;;8.81;53.24
8253;BME280;61313;48.396;10.008;2023-04-27T05:27:01;96330.38;;;8.71;53.65
8253;BME280;61313;48.396;10.008;2023-04-27T05:29:27;96329.91;;;8.83;53.61
8253;BME280;61313;48.396;10.008;2023-04-27T05:31:53;96328.91;;;8.87;53.30
8253;BME280;61313;48.396;10.008;2023-04-27T05:34:24;96333.81;;;8.95;52.56
8253;BME280;61313;48.396;10.008;2023-04-27T05:36:53;96341.97;;;8.87;53.08
8253;BME280;61313;48.396;10.008;2023-04-27T05:39:18;96337.19;;;8.99;53.06
8253;BME280;61313;48.396;10.008;2023-04-27T05:41:44;96330.06;;;9.02;52.71
8253;BME280;61313;48.396;10.008;2023-04-27T05:44:09;96323.94;;;9.03;52.17
8253;BME280;61313;48.396;10.008;2023-04-27T05:46:35;96325.44;;;9.09;52.59
8253;BME280;61313;48.396;10.008;2023-04-27T05:49:00;96321.94;;;9.10;52.33
8253;BME280;61313;48.396;10.008;2023-04-27T05:51:26;96324.09;;;9.21;51.79
8253;BME280;61313;48.396;10.008;2023-04-27T05:54:02;96322.94;;;9.28;51.42
8253;BME280;61313;48.396;10.008;2023-04-27T05:56:27;96323.75;;;9.30;51.57
8253;BME280;61313;48.396;10.008;2023-04-27T05:58:53;96336.00;;;9.29;51.35
8253;BME280;61313;48.396;10.008;2023-04-27T06:01:18;96318.31;;;9.35;51.27
8253;BME280;61313;48.396;10.008;2023-04-27T06:03:44;96330.59;;;9.12;50.81
8253;BME280;61313;48.396;10.008;2023-04-27T06:06:09;96330.94;;;9.03;52.06
8253;BME280;61313;48.396;10.008;2023-04-27T06:08:35;96325.53;;;9.29;51.63
8253;BME280;61313;48.396;10.008;2023-04-27T06:11:01;96334.16;;;9.31;50.99
8253;BME280;61313;48.396;10.008;2023-04-27T06:13:27;96338.06;;;9.21;50.47
8253;BME280;61313;48.396;10.008;2023-04-27T06:15:56;96338.38;;;9.36;50.46
8253;BME280;61313;48.396;10.008;2023-04-27T06:18:21;96341.41;;;9.47;49.96
8253;BME280;61313;48.396;10.008;2023-04-27T06:20:49;96343.09;;;9.26;50.23
8253;BME280;61313;48.396;10.008;2023-04-27T06:23:14;96345.66;;;9.49;49.86
8253;BME280;61313;48.396;10.008;2023-04-27T06:25:40;96343.41;;;9.62;49.57
8253;BME280;61313;48.396;10.008;2023-04-27T06:28:05;96351.97;;;9.45;50.09
8253;BME280;61313;48.396;10.008;2023-04-27T06:30:31;96340.88;;;9.39;50.17
8253;BME280;61313;48.396;10.008;2023-04-27T06:32:56;96353.81;;;8.98;52.60
8253;BME280;61313;48.396;10.008;2023-04-27T06:35:22;96353.41;;;9.30;51.85
8253;BME280;61313;48.396;10.008;2023-04-27T06:37:47;96358.69;;;9.07;51.06
8253;BME280;61313;48.396;10.008;2023-04-27T06:40:13;96352.91;;;9.21;51.99
8253;BME280;61313;48.396;10.008;2023-04-27T06:42:38;96353.44;;;9.07;51.68
8253;BME280;61313;48.396;10.008;2023-04-27T06:45:04;96353.47;;;9.51;51.76
8253;BME280;61313;48.396;10.008;2023-04-27T06:47:29;96362.72;;;9.38;51.23
8253;BME280;61313;48.396;10.008;2023-04-27T06:49:55;96366.13;;;9.18;51.99
8253;BME280;61313;48.396;10.008;2023-04-27T06:52:21;96368.56;;;9.00;53.20
8253;BME280;61313;48.396;10.008;2023-04-27T06:54:46;96367.28;;;9.10;53.02
8253;BME280;61313;48.396;10.008;2023-04-27T06:57:12;96366.75;;;9.24;51.44
8253;BME280;61313;48.396;10.008;2023-04-27T06:59:37;96363.16;;;9.27;51.99
8253;BME280;61313;48.396;10.008;2023-04-27T07:02:03;96364.31;;;9.42;51.86
8253;BME280;61313;48.396;10.008;2023-04-27T07:04:28;96362.13;;;9.53;51.36
8253;BME280;61313;48.396;10.008;2023-04-27T07:06:54;96364.41;;;9.61;51.54
8253;BME280;61313;48.396;10.008;2023-04-27T07:09:20;96366.19;;;10.03;50.32
8253;BME280;61313;48.396;10.008;2023-04-27T07:11:45;96366.06;;;9.85;50.85
8253;BME280;61313;48.396;10.008;2023-04-27T07:14:11;96365.59;;;10.16;50.34
8253;BME280;61313;48.396;10.008;2023-04-27T07:16:36;96369.66;;;10.65;48.62
8253;BME280;61313;48.396;10.008;2023-04-27T07:19:02;96364.63;;;10.98;47.92
8253;BME280;61313;48.396;10.008;2023-04-27T07:21:27;96364.56;;;10.99;48.28
8253;BME280;61313;48.396;10.008;2023-04-27T07:23:53;96361.16;;;10.78;48.50
8253;BME280;61313;48.396;10.008;2023-04-27T07:26:19;96367.25;;;10.79;48.83
8253;BME280;61313;48.396;10.008;2023-04-27T07:28:45;96361.78;;;11.21;48.08
8253;BME280;61313;48.396;10.008;2023-04-27T07:31:11;96360.16;;;11.38;47.79
8253;BME280;61313;48.396;10.008;2023-04-27T07:33:37;96368.34;;;11.32;47.48
8253;BME280;61313;48.396;10.008;2023-04-27T07:36:03;96362.34;;;11.47;47.54
8253;BME280;61313;48.396;10.008;2023-04-27T07:38:29;96363.53;;;11.95;46.38
8253;BME280;61313;48.396;10.008;2023-04-27T07:40:57;96361.75;;;11.96;46.29
8253;BME280;61313;48.396;10.008;2023-04-27T07:43:22;96365.41;;;11.93;46.79
8253;BME280;61313;48.396;10.008;2023-04-27T07:45:50;96371.28;;;11.43;47.51
8253;BME280;61313;48.396;10.008;2023-04-27T07:48:15;96363.00;;;12.06;46.55
8253;BME280;61313;48.396;10.008;2023-04-27T07:50:44;96352.53;;;12.22;45.74
8253;BME280;61313;48.396;10.008;2023-04-27T07:53:09;96361.47;;;11.83;46.87
8253;BME280;61313;48.396;10.008;2023-04-27T07:55:35;96355.06;;;12.41;45.38
8253;BME280;61313;48.396;10.008;2023-04-27T07:58:01;96350.22;;;13.00;43.70
8253;BME280;61313;48.396;10.008;2023-04-27T08:00:26;96355.25;;;12.87;44.89
8253;BME280;61313;48.396;10.008;2023-04-27T08:02:53;96354.09;;;12.92;44.44
8253;BME280;61313;48.396;10.008;2023-04-27T08:05:18;96355.44;;;13.33;42.77
8253;BME280;61313;48.396;10.008;2023-04-27T08:07:44;96351.41;;;13.73;42.72
8253;BME280;61313;48.396;10.008;2023-04-27T08:10:10;96352.97;;;12.97;44.12
8253;BME280;61313;48.396;10.008;2023-04-27T08:12:35;96348.25;;;13.03;43.75
8253;BME280;61313;48.396;10.008;2023-04-27T08:15:00;96357.84;;;13.04;44.22
8253;BME280;61313;48.396;10.008;2023-04-27T08:17:26;96338.28;;;13.42;43.04
8253;BME280;61313;48.396;10.008;2023-04-27T08:19:51;96343.47;;;14.34;41.90
8253;BME280;61313;48.396;10.008;2023-04-27T08:22:17;96338.03;;;14.51;40.77
8253;BME280;61313;48.396;10.008;2023-04-27T08:24:43;96339.78;;;13.92;42.10
8253;BME280;61313;48.396;10.008;2023-04-27T08:27:08;96346.00;;;13.45;43.62
8253;BME280;61313;48.396;10.008;2023-04-27T08:29:34;96343.25;;;13.62;42.59
8253;BME280;61313;48.396;10.008;2023-04-27T08:32:00;96338.84;;;14.23;41.97
8253;BME280;61313;48.396;10.008;2023-04-27T08:34:27;96333.22;;;15.15;39.97
8253;BME280;61313;48.396;10.008;2023-04-27T08:36:53;96328.81;;;15.43;39.44
8253;BME280;61313;48.396;10.008;2023-04-27T08:39:21;96332.78;;;15.50;39.32
8253;BME280;61313;48.396;10.008;2023-04-27T08:41:47;96331.41;;;15.72;39.12
8253;BME280;61313;48.396;10.008;2023-04-27T08:44:12;96331.94;;;14.94;41.65
8253;BME280;61313;48.396;10.008;2023-04-27T08:46:38;96332.47;;;15.55;39.84
8253;BME280;61313;48.396;10.008;2023-04-27T08:49:03;96329.75;;;15.00;40.86
8253;BME280;61313;48.396;10.008;2023-04-27T08:51:31;96331.47;;;15.43;39.90
8253;BME280;61313;48.396;10.008;2023-04-27T08:53:57;96334.81;;;15.18;40.19
8253;BME280;61313;48.396;10.008;2023-04-27T08:56:24;96333.50;;;15.25;40.23
8253;BME280;61313;48.396;10.008;2023-04-27T08:58:54;96319.22;;;16.09;38.95
8253;BME280;61313;48.396;10.008;2023-04-27T09:01:21;96322.84;;;16.21;37.79
8253;BME280;61313;48.396;10.008;2023-04-27T09:03:48;96327.97;;;14.87;39.65
8253;BME280;61313;48.396;10.008;2023-04-27T09:06:14;96321.06;;;14.98;40.66
8253;BME280;61313;48.396;10.008;2023-04-27T09:08:42;96327.53;;;15.63;39.39
8253;BME280;61313;48.396;10.008;2023-04-27T09:11:07;96322.66;;;15.84;38.28
8253;BME280;61313;48.396;10.008;2023-04-27T09:13:40;96314.78;;;15.28;39.16
8253;BME280;61313;48.396;10.008;2023-04-27T09:16:06;96324.16;;;15.46;39.73
8253;BME280;61313;48.396;10.008;2023-04-27T09:18:35;96318.22;;;15.16;39.43
8253;BME280;61313;48.396;10.008;2023-04-27T09:21:02;96311.41;;;15.26;39.41
8253;BME280;61313;48.396;10.008;2023-04-27T09:23:34;96303.03;;;16.39;37.90
8253;BME280;61313;48.396;10.008;2023-04-27T09:26:02;96304.53;;;16.69;36.47
8253;BME280;61313;48.396;10.008;2023-04-27T09:28:28;96314.13;;;16.06;38.13
8253;BME280;61313;48.396;10.008;2023-04-27T09:30:59;96311.56;;;15.92;38.09
8253;BME280;61313;48.396;10.008;2023-04-27T09:33:27;96303.78;;;16.28;37.96
8253;BME280;61313;48.396;10.008;2023-04-27T09:35:54;96314.78;;;16.09;37.68
8253;BME280;61313;48.396;10.008;2023-04-27T09:38:21;96312.09;;;15.97;38.08
8253;BME280;61313;48.396;10.008;2023-04-27T09:40:48;96310.19;;;15.99;38.38
8253;BME280;61313;48.396;10.008;2023-04-27T09:43:14;96299.03;;;16.34;37.92
8253;BME280;61313;48.396;10.008;2023-04-27T09:45:40;96296.16;;;16.11;38.06
8253;BME280;61313;48.396;10.008;2023-04-27T09:48:06;96303.72;;;15.63;38.41
8253;BME280;61313;48.396;10.008;2023-04-27T09:50:37;96301.03;;;15.77;37.50
8253;BME280;61313;48.396;10.008;2023-04-27T09:53:13;96295.75;;;16.43;36.57
8253;BME280;61313;48.396;10.008;2023-04-27T10:06:52;96288.47;;;17.70;34.09
8253;BME280;61313;48.396;10.008;2023-04-27T10:09:22;96286.44;;;17.25;35.08
8253;BME280;61313;48.396;10.008;2023-04-27T10:11:48;96284.91;;;16.71;36.81
8253;BME280;61313;48.396;10.008;2023-04-27T10:14:17;96283.44;;;16.67;37.04
8253;BME280;61313;48.396;10.008;2023-04-27T10:16:44;96288.31;;;16.99;36.09
8253;BME280;61313;48.396;10.008;2023-04-27T10:19:13;96282.47;;;17.31;35.54
8253;BME280;61313;48.396;10.008;2023-04-27T10:21:59;96289.72;;;17.53;34.77
8253;BME280;61313;48.396;10.008;2023-04-27T10:24:33;96276.00;;;17.83;34.36
8253;BME280;61313;48.396;10.008;2023-04-27T10:27:05;96275.25;;;18.05;33.65
8253;BME280;61313;48.396;10.008;2023-04-27T10:29:42;96271.56;;;18.41;33.26
8253;BME280;61313;48.396;10.008;2023-04-27T10:32:12;96263.28;;;19.02;32.78
8253;BME280;61313;48.396;10.008;2023-04-27T10:34:38;96258.41;;;19.19;32.65
8253;BME280;61313;48.396;10.008;2023-04-27T10:37:09;96267.34;;;19.18;32.50
8253;BME280;61313;48.396;10.008;2023-04-27T10:39:39;96268.22;;;18.96;32.32
8253;BME280;61313;48.396;10.008;2023-04-27T10:42:06;96274.56;;;17.90;34.24
8253;BME280;61313;48.396;10.008;2023-04-27T10:44:33;96277.16;;;17.55;35.03
8253;BME280;61313;48.396;10.008;2023-04-27T10:47:01;96281.81;;;17.40;38.21
8253;BME280;61313;48.396;10.008;2023-04-27T10:49:27;96277.47;;;17.02;36.46
8253;BME280;61313;48.396;10.008;2023-04-27T10:51:56;96284.59;;;16.89;36.92
8253;BME280;61313;48.396;10.008;2023-04-27T10:54:26;96276.56;;;16.52;38.67
8253;BME280;61313;48.396;10.008;2023-04-27T10:56:52;96276.34;;;16.81;37.83
8253;BME280;61313;48.396;10.008;2023-04-27T10:59:18;96272.41;;;17.60;36.72
8253;BME280;61313;48.396;10.008;2023-04-27T11:01:47;96260.16;;;18.06;34.41
8253;BME280;61313;48.396;10.008;2023-04-27T11:04:14;96255.16;;;18.36;32.96
8253;BME280;61313;48.396;10.008;2023-04-27T11:06:41;96261.09;;;18.74;32.61
8253;BME280;61313;48.396;10.008;2023-04-27T11:09:08;96258.91;;;18.68;32.28
8253;BME280;61313;48.396;10.008;2023-04-27T11:11:35;96260.03;;;18.88;32.49
8253;BME280;61313;48.396;10.008;2023-04-27T11:14:00;96257.69;;;18.60;32.25
8253;BME280;61313;48.396;10.008;2023-04-27T11:16:28;96257.97;;;18.91;32.08
8253;BME280;61313;48.396;10.008;2023-04-27T11:18:53;96249.25;;;19.00;31.77
8253;BME280;61313;48.396;10.008;2023-04-27T11:21:19;96250.69;;;19.16;31.81
8253;BME280;61313;48.396;10.008;2023-04-27T11:23:45;96257.06;;;19.13;31.85
8253;BME280;61313;48.396;10.008;2023-04-27T11:26:16;96253.72;;;18.66;32.64
8253;BME280;61313;48.396;10.008;2023-04-27T11:28:43;96258.19;;;18.54;32.63
8253;BME280;61313;48.396;10.008;2023-04-27T11:31:10;96260.06;;;18.30;33.73
8253;BME280;61313;48.396;10.008;2023-04-27T11:33:35;96260.94;;;17.95;34.14
8253;BME280;61313;48.396;10.008;2023-04-27T11:36:01;96252.53;;;17.05;35.86
8253;BME280;61313;48.396;10.008;2023-04-27T11:38:33;96251.84;;;17.27;35.28
8253;BME280;61313;48.396;10.008;2023-04-27T11:41:05;96253.50;;;17.76;34.71
8253;BME280;61313;48.396;10.008;2023-04-27T11:43:32;96247.88;;;17.81;35.07
8253;BME280;61313;48.396;10.008;2023-04-27T11:46:02;96255.69;;;18.06;34.71
8253;BME280;61313;48.396;10.008;2023-04-27T11:48:28;96246.16;;;17.80;34.72
8253;BME280;61313;48.396;10.008;2023-04-27T11:50:56;96252.34;;;17.32;35.58
8253;BME280;61313;48.396;10.008;2023-04-27T11:53:34;96249.34;;;17.61;35.22
8253;BME280;61313;48.396;10.008;2023-04-27T11:56:01;96263.00;;;17.67;34.83
8253;BME280;61313;48.396;10.008;2023-04-27T11:58:35;96251.88;;;17.38;35.34
8253;BME280;61313;48.396;10.008;2023-04-27T12:01:01;96255.69;;;16.22;37.79
8253;BME280;61313;48.396;10.008;2023-04-27T12:03:28;96256.97;;;16.55;37.38
8253;BME280;61313;48.396;10.008;2023-04-27T12:05:55;96265.09;;;16.90;36.93
8253;BME280;61313;48.396;10.008;2023-04-27T12:08:21;96250.06;;;17.14;36.99
8253;BME280;61313;48.396;10.008;2023-04-27T12:10:47;96262.97;;;17.32;36.75
8253;BME280;61313;48.396;10.008;2023-04-27T12:13:12;96256.41;;;17.49;35.87
8253;BME280;61313;48.396;10.008;2023-04-27T12:15:38;96253.78;;;17.12;36.53
8253;BME280;61313;48.396;10.008;2023-04-27T12:18:04;96253.69;;;17.38;36.15
8253;BME280;61313;48.396;10.008;2023-04-27T12:20:30;96263.06;;;17.30;36.57
8253;BME280;61313;48.396;10.008;2023-04-27T12:22:56;96261.41;;;17.17;37.08
8253;BME280;61313;48.396;10.008;2023-04-27T12:25:21;96261.72;;;17.25;37.01
8253;BME280;61313;48.396;10.008;2023-04-27T12:27:47;96262.41;;;17.40;36.45
8253;BME280;61313;48.396;10.008;2023-04-27T12:30:13;96256.94;;;17.17;37.22
8253;BME280;61313;48.396;10.008;2023-04-27T12:32:39;96259.06;;;17.25;37.18
8253;BME280;61313;48.396;10.008;2023-04-27T12:35:06;96256.78;;;17.07;37.67
8253;BME280;61313;48.396;10.008;2023-04-27T12:37:31;96260.91;;;17.11;37.92
8253;BME280;61313;48.396;10.008;2023-04-27T12:39:57;96251.56;;;16.43;38.82
8253;BME280;61313;48.396;10.008;2023-04-27T12:42:23;96260.44;;;16.68;38.22
8253;BME280;61313;48.396;10.008;2023-04-27T12:44:49;96246.75;;;16.74;38.13
8253;BME280;61313;48.396;10.008;2023-04-27T12:47:16;96244.34;;;17.21;37.26
8253;BME280;61313;48.396;10.008;2023-04-27T12:49:41;96239.91;;;17.56;35.85
8253;BME280;61313;48.396;10.008;2023-04-27T12:52:07;96241.53;;;17.70;35.18
8253;BME280;61313;48.396;10.008;2023-04-27T12:54:32;96235.34;;;17.83;35.05
8253;BME280;61313;48.396;10.008;2023-04-27T12:56:58;96231.28;;;18.01;34.93
8253;BME280;61313;48.396;10.008;2023-04-27T12:59:27;96233.84;;;18.14;34.29
8253;BME280;61313;48.396;10.008;2023-04-27T13:01:52;96232.84;;;17.92;34.69
8253;BME280;61313;48.396;10.008;2023-04-27T13:04:18;96229.94;;;17.84;34.75
8253;BME280;61313;48.396;10.008;2023-04-27T13:06:44;96230.00;;;18.18;34.53
8253;BME280;61313;48.396;10.008;2023-04-27T13:09:10;96227.81;;;18.23;33.92
8253;BME280;61313;48.396;10.008;2023-04-27T13:11:37;96221.81;;;18.32;33.85